sensor_id;sensor_type;location;lat;lon;timestamp;pressure;altitude;pressure_sealevel;temperature;humidity
85936;BME280;76481;54.346;10.210;2024-03-02T00:00:18;100311.81;;;7.73;88.39
85936;BME280;76481;54.346;10.210;2024-03-02T00:02:47;100302.94;;;7.75;88.30
85936;BME280;76481;54.346;10.210;2024-03-02T00:05:15;100300.13;;;7.75;87.55
85936;BME280;76481;54.346;10.210;2024-03-02T00:07:59;100299.78;;;7.73;87.58
85936;BME280;76481;54.346;10.210;2024-03-02T00:10:26;100294.16;;;7.73;88.30
85936;BME280;76481;54.346;10.210;2024-03-02T00:12:55;100286.88;;;7.75;88.38
85936;BME280;76481;54.346;10.210;2024-03-02T00:15:28;100288.47;;;7.76;88.12
85936;BME280;76481;54.346;10.210;2024-03-02T00:17:57;100285.22;;;7.78;87.56
85936;BME280;76481;54.346;10.210;2024-03-02T00:20:24;100284.88;;;7.76;88.25
85936;BME280;76481;54.346;10.210;2024-03-02T00:23:02;100283.31;;;7.75;88.02
85936;BME280;76481;54.346;10.210;2024-03-02T00:28:01;100283.63;;;7.77;87.33
85936;BME280;76481;54.346;10.210;2024-03-02T00:33:20;100274.88;;;7.75;87.16
85936;BME280;76481;54.346;10.210;2024-03-02T00:35:47;100282.06;;;7.76;87.04
85936;BME280;76481;54.346;10.210;2024-03-02T00:38:14;100264.63;;;7.68;87.30
85936;BME280;76481;54.346;10.210;2024-03-02T00:40:44;100257.19;;;7.62;88.12
85936;BME280;76481;54.346;10.210;2024-03-02T00:46:00;100253.72;;;7.58;88.49
85936;BME280;76481;54.346;10.210;2024-03-02T00:48:25;100259.53;;;7.51;88.39
85936;BME280;76481;54.346;10.210;2024-03-02T00:50:54;100263.38;;;7.57;88.76
85936;BME280;76481;54.346;10.210;2024-03-02T00:53:23;100261.81;;;7.56;88.33
85936;BME280;76481;54.346;10.210;2024-03-02T00:55:52;100274.47;;;7.60;88.32
85936;BME280;76481;54.346;10.210;2024-03-02T00:58:18;100269.66;;;7.61;88.50
85936;BME280;76481;54.346;10.210;2024-03-02T01:00:43;100261.47;;;7.66;88.69
85936;BME280;76481;54.346;10.210;2024-03-02T01:03:09;100260.81;;;7.62;87.66
85936;BME280;76481;54.346;10.210;2024-03-02T01:05:36;100252.38;;;7.62;88.36
85936;BME280;76481;54.346;10.210;2024-03-02T01:08:02;100249.66;;;7.59;88.04
85936;BME280;76481;54.346;10.210;2024-03-02T01:10:27;100242.50;;;7.58;88.37
85936;BME280;76481;54.346;10.210;2024-03-02T01:12:53;100243.97;;;7.62;88.76
85936;BME280;76481;54.346;10.210;2024-03-02T01:15:18;100242.94;;;7.56;88.14
85936;BME280;76481;54.346;10.210;2024-03-02T01:17:44;100244.97;;;7.56;88.48
85936;BME280;76481;54.346;10.210;2024-03-02T01:20:10;100234.19;;;7.54;88.65
85936;BME280;76481;54.346;10.210;2024-03-02T01:22:36;100232.50;;;7.57;88.37
85936;BME280;76481;54.346;10.210;2024-03-02T01:25:03;100240.94;;;7.57;89.05
85936;BME280;76481;54.346;10.210;2024-03-02T01:27:28;100239.69;;;7.58;88.94
85936;BME280;76481;54.346;10.210;2024-03-02T01:29:54;100237.31;;;7.56;88.70
85936;BME280;76481;54.346;10.210;2024-03-02T01:32:20;100241.72;;;7.57;88.31
85936;BME280;76481;54.346;10.210;2024-03-02T01:34:45;100240.56;;;7.55;89.09
85936;BME280;76481;54.346;10.210;2024-03-02T01:37:11;100235.31;;;7.57;88.82
85936;BME280;76481;54.346;10.210;2024-03-02T01:39:36;100225.34;;;7.56;89.48
85936;BME280;76481;54.346;10.210;2024-03-02T01:42:02;100232.28;;;7.51;88.70
85936;BME280;76481;54.346;10.210;2024-03-02T01:44:27;100236.22;;;7.54;89.38
85936;BME280;76481;54.346;10.210;2024-03-02T01:46:53;100240.56;;;7.55;89.38
85936;BME280;76481;54.346;10.210;2024-03-02T01:49:18;100235.31;;;7.57;88.54
85936;BME280;76481;54.346;10.210;2024-03-02T01:51:44;100238.94;;;7.57;89.43
85936;BME280;76481;54.346;10.210;2024-03-02T01:54:09;100249.00;;;7.55;88.50
85936;BME280;76481;54.346;10.210;2024-03-02T01:56:35;100239.38;;;7.56;88.57
85936;BME280;76481;54.346;10.210;2024-03-02T01:59:01;100235.41;;;7.53;88.59
85936;BME280;76481;54.346;10.210;2024-03-02T02:01:26;100240.25;;;7.53;89.31
85936;BME280;76481;54.346;10.210;2024-03-02T02:03:52;100239.38;;;7.56;89.30
85936;BME280;76481;54.346;10.210;2024-03-02T02:06:17;100231.03;;;7.52;89.30
85936;BME280;76481;54.346;10.210;2024-03-02T02:08:43;100234.28;;;7.51;88.84
85936;BME280;76481;54.346;10.210;2024-03-02T02:11:08;100239.81;;;7.54;88.85
85936;BME280;76481;54.346;10.210;2024-03-02T02:13:34;100235.09;;;7.51;89.34
85936;BME280;76481;54.346;10.210;2024-03-02T02:16:07;100233.84;;;7.52;89.40
85936;BME280;76481;54.346;10.210;2024-03-02T02:18:32;100234.50;;;7.44;89.72
85936;BME280;76481;54.346;10.210;2024-03-02T02:20:58;100236.41;;;7.47;89.94
85936;BME280;76481;54.346;10.210;2024-03-02T02:23:23;100230.81;;;7.47;89.81
85936;BME280;76481;54.346;10.210;2024-03-02T02:25:49;100232.47;;;7.44;89.21
85936;BME280;76481;54.346;10.210;2024-03-02T02:28:14;100232.59;;;7.41;89.59
85936;BME280;76481;54.346;10.210;2024-03-02T02:30:40;100224.63;;;7.39;89.82
85936;BME280;76481;54.346;10.210;2024-03-02T02:33:05;100219.88;;;7.36;89.83
85936;BME280;76481;54.346;10.210;2024-03-02T02:35:31;100223.66;;;7.30;89.68
85936;BME280;76481;54.346;10.210;2024-03-02T02:37:56;100217.75;;;7.28;90.86
85936;BME280;76481;54.346;10.210;2024-03-02T02:40:23;100223.78;;;7.26;91.01
85936;BME280;76481;54.346;10.210;2024-03-02T02:42:49;100222.63;;;7.24;89.98
85936;BME280;76481;54.346;10.210;2024-03-02T02:45:15;100223.34;;;7.28;90.50
85936;BME280;76481;54.346;10.210;2024-03-02T02:47:41;100220.19;;;7.26;89.54
85936;BME280;76481;54.346;10.210;2024-03-02T02:50:07;100217.03;;;7.24;90.02
85936;BME280;76481;54.346;10.210;2024-03-02T02:52:34;100218.50;;;7.28;89.53
85936;BME280;76481;54.346;10.210;2024-03-02T02:55:04;100217.38;;;7.26;90.08
85936;BME280;76481;54.346;10.210;2024-03-02T02:57:34;100217.03;;;7.24;89.62
85936;BME280;76481;54.346;10.210;2024-03-02T03:00:06;100219.38;;;7.25;90.06
85936;BME280;76481;54.346;10.210;2024-03-02T03:02:38;100213.00;;;7.25;89.18
85936;BME280;76481;54.346;10.210;2024-03-02T03:05:07;100218.63;;;7.25;89.23
85936;BME280;76481;54.346;10.210;2024-03-02T03:07:33;100217.03;;;7.24;88.86
85936;BME280;76481;54.346;10.210;2024-03-02T03:10:00;100219.50;;;7.22;89.38
85936;BME280;76481;54.346;10.210;2024-03-02T03:12:25;100211.88;;;7.22;89.05
85936;BME280;76481;54.346;10.210;2024-03-02T03:14:51;100210.38;;;7.18;89.59
85936;BME280;76481;54.346;10.210;2024-03-02T03:17:17;100203.91;;;7.21;89.91
85936;BME280;76481;54.346;10.210;2024-03-02T03:19:42;100212.44;;;7.17;89.59
85936;BME280;76481;54.346;10.210;2024-03-02T03:22:08;100205.22;;;7.16;89.41
85936;BME280;76481;54.346;10.210;2024-03-02T03:24:33;100202.78;;;7.18;89.59
85936;BME280;76481;54.346;10.210;2024-03-02T03:26:59;100201.97;;;7.18;88.88
85936;BME280;76481;54.346;10.210;2024-03-02T03:29:24;100196.03;;;7.16;89.10
85936;BME280;76481;54.346;10.210;2024-03-02T03:31:50;100198.06;;;7.15;88.71
85936;BME280;76481;54.346;10.210;2024-03-02T03:34:15;100200.53;;;7.13;89.29
85936;BME280;76481;54.346;10.210;2024-03-02T03:36:42;100203.22;;;7.17;89.63
85936;BME280;76481;54.346;10.210;2024-03-02T03:39:07;100204.66;;;7.09;88.97
85936;BME280;76481;54.346;10.210;2024-03-02T03:41:33;100205.53;;;7.06;89.04
85936;BME280;76481;54.346;10.210;2024-03-02T03:43:58;100198.69;;;7.07;89.48
85936;BME280;76481;54.346;10.210;2024-03-02T03:46:24;100199.94;;;7.06;88.57
85936;BME280;76481;54.346;10.210;2024-03-02T03:48:49;100195.22;;;7.03;88.95
85936;BME280;76481;54.346;10.210;2024-03-02T03:51:14;100209.22;;;7.03;88.82
85936;BME280;76481;54.346;10.210;2024-03-02T03:53:40;100204.16;;;6.98;89.37
85936;BME280;76481;54.346;10.210;2024-03-02T03:56:05;100197.66;;;7.01;89.20
85936;BME280;76481;54.346;10.210;2024-03-02T03:58:31;100214.91;;;6.99;89.68
85936;BME280;76481;54.346;10.210;2024-03-02T04:00:57;100206.59;;;6.96;88.42
85936;BME280;76481;54.346;10.210;2024-03-02T04:03:22;100213.69;;;7.00;90.01
85936;BME280;76481;54.346;10.210;2024-03-02T04:05:48;100224.66;;;6.95;90.42
85936;BME280;76481;54.346;10.210;2024-03-02T04:08:13;100214.13;;;6.99;89.17
85936;BME280;76481;54.346;10.210;2024-03-02T04:10:39;100218.16;;;6.98;89.22
85936;BME280;76481;54.346;10.210;2024-03-02T04:13:05;100212.13;;;6.99;90.20
85936;BME280;76481;54.346;10.210;2024-03-02T04:15:31;100211.06;;;6.93;88.98
85936;BME280;76481;54.346;10.210;2024-03-02T04:17:56;100212.75;;;6.91;89.70
85936;BME280;76481;54.346;10.210;2024-03-02T04:20:22;100218.81;;;6.89;90.02
85936;BME280;76481;54.346;10.210;2024-03-02T04:22:47;100211.72;;;6.85;89.58
85936;BME280;76481;54.346;10.210;2024-03-02T04:25:13;100217.56;;;6.90;89.14
85936;BME280;76481;54.346;10.210;2024-03-02T04:27:38;100224.28;;;6.93;88.65
85936;BME280;76481;54.346;10.210;2024-03-02T04:30:05;100220.97;;;6.98;88.22
85936;BME280;76481;54.346;10.210;2024-03-02T04:32:30;100222.72;;;6.92;88.82
85936;BME280;76481;54.346;10.210;2024-03-02T04:34:56;100228.69;;;6.94;88.33
85936;BME280;76481;54.346;10.210;2024-03-02T04:37:22;100226.53;;;6.85;89.65
85936;BME280;76481;54.346;10.210;2024-03-02T04:39:48;100226.97;;;6.84;89.38
85936;BME280;76481;54.346;10.210;2024-03-02T04:42:13;100225.72;;;6.85;89.08
85936;BME280;76481;54.346;10.210;2024-03-02T04:44:39;100225.47;;;6.79;90.00
85936;BME280;76481;54.346;10.210;2024-03-02T04:47:05;100226.97;;;6.84;90.05
85936;BME280;76481;54.346;10.210;2024-03-02T04:49:30;100230.44;;;6.88;90.01
85936;BME280;76481;54.346;10.210;2024-03-02T04:51:56;100228.88;;;6.87;88.83
85936;BME280;76481;54.346;10.210;2024-03-02T04:54:22;100226.53;;;6.85;90.00
85936;BME280;76481;54.346;10.210;2024-03-02T04:56:48;100222.03;;;6.88;89.38
85936;BME280;76481;54.346;10.210;2024-03-02T04:59:17;100218.44;;;6.87;88.68
85936;BME280;76481;54.346;10.210;2024-03-02T05:01:46;100218.63;;;6.80;90.23
85936;BME280;76481;54.346;10.210;2024-03-02T05:04:12;100215.84;;;6.80;88.99
85936;BME280;76481;54.346;10.210;2024-03-02T05:06:39;100211.91;;;6.78;90.58
85936;BME280;76481;54.346;10.210;2024-03-02T05:09:08;100196.75;;;6.75;90.17
85936;BME280;76481;54.346;10.210;2024-03-02T05:11:34;100201.59;;;6.75;89.56
85936;BME280;76481;54.346;10.210;2024-03-02T05:14:06;100198.41;;;6.73;88.90
85936;BME280;76481;54.346;10.210;2024-03-02T05:16:37;100199.31;;;6.70;89.58
85936;BME280;76481;54.346;10.210;2024-03-02T05:19:12;100202.66;;;6.65;89.48
85936;BME280;76481;54.346;10.210;2024-03-02T05:21:37;100205.78;;;6.67;89.74
85936;BME280;76481;54.346;10.210;2024-03-02T05:24:03;100205.25;;;6.72;90.54
85936;BME280;76481;54.346;10.210;2024-03-02T05:26:28;100194.56;;;6.67;89.58
85936;BME280;76481;54.346;10.210;2024-03-02T05:28:54;100196.06;;;6.71;89.93
85936;BME280;76481;54.346;10.210;2024-03-02T05:31:19;100191.78;;;6.67;90.14
85936;BME280;76481;54.346;10.210;2024-03-02T05:33:44;100195.25;;;6.71;89.66
85936;BME280;76481;54.346;10.210;2024-03-02T05:36:10;100193.63;;;6.73;90.42
85936;BME280;76481;54.346;10.210;2024-03-02T05:38:36;100186.34;;;6.76;89.74
85936;BME280;76481;54.346;10.210;2024-03-02T05:41:01;100180.81;;;6.72;89.66
85936;BME280;76481;54.346;10.210;2024-03-02T05:43:27;100186.78;;;6.74;90.09
85936;BME280;76481;54.346;10.210;2024-03-02T05:45:52;100183.97;;;6.74;89.25
85936;BME280;76481;54.346;10.210;2024-03-02T05:48:18;100195.78;;;6.82;88.89
85936;BME280;76481;54.346;10.210;2024-03-02T05:50:43;100195.88;;;6.78;89.70
85936;BME280;76481;54.346;10.210;2024-03-02T05:53:09;100211.91;;;6.78;89.27
85936;BME280;76481;54.346;10.210;2024-03-02T05:55:34;100222.31;;;6.77;89.74
85936;BME280;76481;54.346;10.210;2024-03-02T05:58:00;100220.03;;;6.72;90.50
85936;BME280;76481;54.346;10.210;2024-03-02T06:00:34;100210.50;;;6.70;89.51
85936;BME280;76481;54.346;10.210;2024-03-02T06:02:59;100208.94;;;6.69;89.97
85936;BME280;76481;54.346;10.210;2024-03-02T06:05:25;100204.56;;;6.68;90.69
85936;BME280;76481;54.346;10.210;2024-03-02T06:07:50;100210.63;;;6.66;90.00
85936;BME280;76481;54.346;10.210;2024-03-02T06:10:16;100218.22;;;6.66;90.74
85936;BME280;76481;54.346;10.210;2024-03-02T06:12:41;100215.94;;;6.61;90.77
85936;BME280;76481;54.346;10.210;2024-03-02T06:15:07;100219.53;;;6.61;89.27
85936;BME280;76481;54.346;10.210;2024-03-02T06:17:36;100224.00;;;6.59;90.62
85936;BME280;76481;54.346;10.210;2024-03-02T06:20:01;100225.56;;;6.60;90.22
85936;BME280;76481;54.346;10.210;2024-03-02T06:22:27;100232.31;;;6.62;89.74
85936;BME280;76481;54.346;10.210;2024-03-02T06:24:52;100228.19;;;6.67;89.49
85936;BME280;76481;54.346;10.210;2024-03-02T06:27:18;100227.41;;;6.66;89.60
85936;BME280;76481;54.346;10.210;2024-03-02T06:29:43;100232.22;;;6.66;90.53
85936;BME280;76481;54.346;10.210;2024-03-02T06:32:09;100224.50;;;6.70;90.33
85936;BME280;76481;54.346;10.210;2024-03-02T06:34:34;100224.94;;;6.68;90.39
85936;BME280;76481;54.346;10.210;2024-03-02T06:37:00;100222.59;;;6.67;89.70
85936;BME280;76481;54.346;10.210;2024-03-02T06:39:25;100235.38;;;6.68;89.24
85936;BME280;76481;54.346;10.210;2024-03-02T06:41:51;100236.94;;;6.69;89.78
85936;BME280;76481;54.346;10.210;2024-03-02T06:44:17;100221.03;;;6.66;90.20
85936;BME280;76481;54.346;10.210;2024-03-02T06:46:42;100233.72;;;6.70;89.63
85936;BME280;76481;54.346;10.210;2024-03-02T06:49:08;100232.91;;;6.70;90.81
85936;BME280;76481;54.346;10.210;2024-03-02T06:51:35;100232.91;;;6.70;90.36
85936;BME280;76481;54.346;10.210;2024-03-02T06:54:01;100230.03;;;6.73;90.36
85936;BME280;76481;54.346;10.210;2024-03-02T06:56:26;100232.03;;;6.73;90.55
85936;BME280;76481;54.346;10.210;2024-03-02T06:58:52;100223.13;;;6.78;89.77
85936;BME280;76481;54.346;10.210;2024-03-02T07:01:17;100220.63;;;6.80;90.26
85936;BME280;76481;54.346;10.210;2024-03-02T07:03:43;100230.63;;;6.81;90.08
85936;BME280;76481;54.346;10.210;2024-03-02T07:06:09;100232.13;;;6.85;89.41
85936;BME280;76481;54.346;10.210;2024-03-02T07:08:34;100224.47;;;6.86;89.49
85936;BME280;76481;54.346;10.210;2024-03-02T07:11:00;100224.75;;;6.91;88.87
85936;BME280;76481;54.346;10.210;2024-03-02T07:13:26;100229.81;;;6.96;89.39
85936;BME280;76481;54.346;10.210;2024-03-02T07:15:52;100235.06;;;6.94;90.23
85936;BME280;76481;54.346;10.210;2024-03-02T07:18:30;100228.25;;;6.95;89.45
85936;BME280;76481;54.346;10.210;2024-03-02T07:20:56;100228.13;;;6.99;88.68
85936;BME280;76481;54.346;10.210;2024-03-02T07:23:24;100228.50;;;7.01;89.05
85936;BME280;76481;54.346;10.210;2024-03-02T07:25:53;100233.22;;;7.04;88.87
85936;BME280;76481;54.346;10.210;2024-03-02T07:28:24;100232.56;;;7.12;87.68
85936;BME280;76481;54.346;10.210;2024-03-02T07:31:00;100237.94;;;7.07;87.53
85936;BME280;76481;54.346;10.210;2024-03-02T07:33:26;100235.06;;;7.10;88.75
85936;BME280;76481;54.346;10.210;2024-03-02T07:35:52;100247.84;;;7.11;88.85
85936;BME280;76481;54.346;10.210;2024-03-02T07:38:18;100243.94;;;7.21;88.14
85936;BME280;76481;54.346;10.210;2024-03-02T07:40:44;100243.66;;;7.32;86.71
85936;BME280;76481;54.346;10.210;2024-03-02T07:43:10;100253.31;;;7.31;86.59
85936;BME280;76481;54.346;10.210;2024-03-02T07:45:35;100245.56;;;7.35;86.99
85936;BME280;76481;54.346;10.210;2024-03-02T07:48:01;100253.88;;;7.38;86.47
85936;BME280;76481;54.346;10.210;2024-03-02T07:50:29;100250.53;;;7.43;87.54
85936;BME280;76481;54.346;10.210;2024-03-02T07:52:55;100257.97;;;7.50;85.74
85936;BME280;76481;54.346;10.210;2024-03-02T07:55:21;100260.22;;;7.55;85.52
85936;BME280;76481;54.346;10.210;2024-03-02T07:57:46;100263.59;;;7.62;85.21
85936;BME280;76481;54.346;10.210;2024-03-02T08:00:12;100260.16;;;7.71;85.13
85936;BME280;76481;54.346;10.210;2024-03-02T08:02:39;100261.38;;;7.70;84.66
85936;BME280;76481;54.346;10.210;2024-03-02T08:05:05;100259.59;;;7.76;84.39
85936;BME280;76481;54.346;10.210;2024-03-02T08:07:31;100259.16;;;7.77;85.41
85936;BME280;76481;54.346;10.210;2024-03-02T08:09:57;100249.72;;;7.84;84.21
85936;BME280;76481;54.346;10.210;2024-03-02T08:12:22;100249.75;;;7.96;84.09
85936;BME280;76481;54.346;10.210;2024-03-02T08:14:48;100250.66;;;8.06;83.36
85936;BME280;76481;54.346;10.210;2024-03-02T08:17:14;100253.03;;;8.20;82.74
85936;BME280;76481;54.346;10.210;2024-03-02T08:19:40;100249.25;;;8.26;83.13
85936;BME280;76481;54.346;10.210;2024-03-02T08:22:05;100254.41;;;8.28;81.78
85936;BME280;76481;54.346;10.210;2024-03-02T08:24:32;100241.06;;;8.32;82.00
85936;BME280;76481;54.346;10.210;2024-03-02T08:26:59;100242.84;;;8.26;82.85
85936;BME280;76481;54.346;10.210;2024-03-02T08:29:24;100244.88;;;8.38;82.34
85936;BME280;76481;54.346;10.210;2024-03-02T08:31:50;100257.91;;;8.44;81.75
85936;BME280;76481;54.346;10.210;2024-03-02T08:34:15;100248.69;;;8.44;81.37
85936;BME280;76481;54.346;10.210;2024-03-02T08:36:41;100266.22;;;8.48;81.21
85936;BME280;76481;54.346;10.210;2024-03-02T08:39:08;100280.50;;;8.41;80.77
85936;BME280;76481;54.346;10.210;2024-03-02T08:41:47;100300.38;;;8.34;81.00
85936;BME280;76481;54.346;10.210;2024-03-02T08:44:13;100288.09;;;8.28;81.39
85936;BME280;76481;54.346;10.210;2024-03-02T08:46:39;100286.09;;;8.28;81.79
85936;BME280;76481;54.346;10.210;2024-03-02T08:49:05;100284.97;;;8.26;81.85
85936;BME280;76481;54.346;10.210;2024-03-02T08:51:31;100286.22;;;8.25;82.35
85936;BME280;76481;54.346;10.210;2024-03-02T08:53:57;100289.34;;;8.27;81.96
85936;BME280;76481;54.346;10.210;2024-03-02T08:56:24;100294.06;;;8.30;82.49
85936;BME280;76481;54.346;10.210;2024-03-02T08:58:52;100299.16;;;8.35;81.66
85936;BME280;76481;54.346;10.210;2024-03-02T09:01:18;100297.66;;;8.43;81.58
85936;BME280;76481;54.346;10.210;2024-03-02T09:03:47;100294.31;;;8.48;81.68
85936;BME280;76481;54.346;10.210;2024-03-02T09:06:14;100303.06;;;8.63;81.16
85936;BME280;76481;54.346;10.210;2024-03-02T09:08:42;100310.50;;;8.69;80.27
85936;BME280;76481;54.346;10.210;2024-03-02T09:11:09;100306.97;;;8.90;79.92
85936;BME280;76481;54.346;10.210;2024-03-02T09:13:36;100306.59;;;9.13;78.69
85936;BME280;76481;54.346;10.210;2024-03-02T09:16:02;100305.72;;;9.38;78.45
85936;BME280;76481;54.346;10.210;2024-03-02T09:18:28;100307.31;;;9.60;76.90
85936;BME280;76481;54.346;10.210;2024-03-02T09:20:53;100305.28;;;9.82;75.84
85936;BME280;76481;54.346;10.210;2024-03-02T09:23:19;100314.50;;;10.04;74.23
85936;BME280;76481;54.346;10.210;2024-03-02T09:25:44;100308.16;;;10.74;73.35
85936;BME280;76481;54.346;10.210;2024-03-02T09:28:10;100295.59;;;11.15;69.61
85936;BME280;76481;54.346;10.210;2024-03-02T09:30:36;100299.09;;;11.73;68.64
85936;BME280;76481;54.346;10.210;2024-03-02T09:33:01;100302.22;;;11.84;66.78
85936;BME280;76481;54.346;10.210;2024-03-02T09:35:27;100305.56;;;12.42;66.35
85936;BME280;76481;54.346;10.210;2024-03-02T09:37:52;100304.59;;;12.45;62.76
85936;BME280;76481;54.346;10.210;2024-03-02T09:40:24;100305.59;;;12.24;64.04
85936;BME280;76481;54.346;10.210;2024-03-02T09:42:50;100317.72;;;12.15;63.77
85936;BME280;76481;54.346;10.210;2024-03-02T09:45:23;100308.78;;;12.17;63.98
85936;BME280;76481;54.346;10.210;2024-03-02T09:47:49;100303.06;;;12.35;64.29
85936;BME280;76481;54.346;10.210;2024-03-02T09:50:15;100312.31;;;12.77;62.26
85936;BME280;76481;54.346;10.210;2024-03-02T09:52:42;100299.03;;;13.01;62.21
85936;BME280;76481;54.346;10.210;2024-03-02T09:55:08;100295.41;;;13.01;62.50
85936;BME280;76481;54.346;10.210;2024-03-02T09:57:34;100300.13;;;12.95;60.92
85936;BME280;76481;54.346;10.210;2024-03-02T09:59:59;100292.84;;;12.79;62.41
85936;BME280;76481;54.346;10.210;2024-03-02T10:02:25;100293.59;;;12.80;62.16
85936;BME280;76481;54.346;10.210;2024-03-02T10:04:50;100295.91;;;12.99;61.48
85936;BME280;76481;54.346;10.210;2024-03-02T10:07:17;100300.66;;;12.84;61.42
85936;BME280;76481;54.346;10.210;2024-03-02T10:09:47;100295.53;;;12.32;63.83
85936;BME280;76481;54.346;10.210;2024-03-02T10:12:15;100294.50;;;12.02;63.80
85936;BME280;76481;54.346;10.210;2024-03-02T10:14:41;100297.22;;;11.79;64.22
85936;BME280;76481;54.346;10.210;2024-03-02T10:17:13;100295.31;;;11.85;63.96
85936;BME280;76481;54.346;10.210;2024-03-02T10:19:40;100301.91;;;11.73;64.90
85936;BME280;76481;54.346;10.210;2024-03-02T10:22:07;100306.31;;;11.65;66.44
85936;BME280;76481;54.346;10.210;2024-03-02T10:24:44;100305.03;;;11.57;66.39
85936;BME280;76481;54.346;10.210;2024-03-02T10:27:15;100305.34;;;11.50;67.48
85936;BME280;76481;54.346;10.210;2024-03-02T10:29:41;100308.47;;;11.34;67.35
85936;BME280;76481;54.346;10.210;2024-03-02T10:32:10;100299.06;;;11.28;67.86
85936;BME280;76481;54.346;10.210;2024-03-02T10:34:40;100300.94;;;11.22;67.60
85936;BME280;76481;54.346;10.210;2024-03-02T10:37:06;100297.81;;;11.29;67.17
85936;BME280;76481;54.346;10.210;2024-03-02T10:39:35;100300.31;;;11.36;68.32
85936;BME280;76481;54.346;10.210;2024-03-02T10:42:02;100297.63;;;11.41;67.14
85936;BME280;76481;54.346;10.210;2024-03-02T10:44:31;100288.09;;;11.39;66.75
85936;BME280;76481;54.346;10.210;2024-03-02T10:47:00;100283.72;;;11.65;67.00
85936;BME280;76481;54.346;10.210;2024-03-02T10:49:29;100290.63;;;11.82;65.53
85936;BME280;76481;54.346;10.210;2024-03-02T10:51:54;100290.31;;;11.80;65.53
85936;BME280;76481;54.346;10.210;2024-03-02T10:54:20;100282.16;;;11.82;65.23
85936;BME280;76481;54.346;10.210;2024-03-02T10:56:52;100297.50;;;11.99;64.63
85936;BME280;76481;54.346;10.210;2024-03-02T10:59:28;100302.22;;;11.93;64.56
85936;BME280;76481;54.346;10.210;2024-03-02T11:02:02;100298.28;;;11.99;64.84
85936;BME280;76481;54.346;10.210;2024-03-02T11:04:29;100304.41;;;12.07;64.07
85936;BME280;76481;54.346;10.210;2024-03-02T11:07:04;100294.84;;;11.95;64.08
85936;BME280;76481;54.346;10.210;2024-03-02T11:09:33;100294.84;;;12.04;65.14
85936;BME280;76481;54.346;10.210;2024-03-02T11:14:43;100306.31;;;11.83;64.38
85936;BME280;76481;54.346;10.210;2024-03-02T11:17:09;100293.78;;;11.75;66.34
85936;BME280;76481;54.346;10.210;2024-03-02T11:19:37;100308.97;;;11.95;64.68
85936;BME280;76481;54.346;10.210;2024-03-02T11:22:03;100312.88;;;11.89;64.83
85936;BME280;76481;54.346;10.210;2024-03-02T11:24:31;100303.59;;;12.06;64.83
85936;BME280;76481;54.346;10.210;2024-03-02T11:27:01;100303.91;;;12.17;64.76
85936;BME280;76481;54.346;10.210;2024-03-02T11:32:02;100298.66;;;12.34;64.48
85936;BME280;76481;54.346;10.210;2024-03-02T11:34:35;100300.09;;;12.29;62.84
85936;BME280;76481;54.346;10.210;2024-03-02T11:37:02;100300.28;;;12.68;62.76
85936;BME280;76481;54.346;10.210;2024-03-02T11:39:28;100304.63;;;12.78;62.56
85936;BME280;76481;54.346;10.210;2024-03-02T11:41:57;100305.94;;;13.00;62.68
85936;BME280;76481;54.346;10.210;2024-03-02T11:44:26;100305.47;;;13.25;59.92
85936;BME280;76481;54.346;10.210;2024-03-02T11:46:58;100314.25;;;13.04;60.19
85936;BME280;76481;54.346;10.210;2024-03-02T11:49:46;100306.72;;;13.01;60.01
85936;BME280;76481;54.346;10.210;2024-03-02T11:52:14;100302.97;;;12.95;60.22
85936;BME280;76481;54.346;10.210;2024-03-02T11:54:49;100302.22;;;13.41;58.88
85936;BME280;76481;54.346;10.210;2024-03-02T11:57:21;100305.28;;;13.52;58.52
85936;BME280;76481;54.346;10.210;2024-03-02T11:59:51;100304.59;;;13.81;58.22
85936;BME280;76481;54.346;10.210;2024-03-02T12:02:19;100305.63;;;13.69;57.70
85936;BME280;76481;54.346;10.210;2024-03-02T12:04:47;100313.38;;;13.97;58.46
85936;BME280;76481;54.346;10.210;2024-03-02T12:07:21;100311.59;;;14.23;56.57
85936;BME280;76481;54.346;10.210;2024-03-02T12:09:48;100303.56;;;14.36;56.41
85936;BME280;76481;54.346;10.210;2024-03-02T12:12:13;100302.25;;;13.94;57.20
85936;BME280;76481;54.346;10.210;2024-03-02T12:14:52;100302.63;;;13.87;58.09
85936;BME280;76481;54.346;10.210;2024-03-02T12:17:21;100306.75;;;14.15;57.19
85936;BME280;76481;54.346;10.210;2024-03-02T12:19:46;100305.59;;;14.50;56.48
85936;BME280;76481;54.346;10.210;2024-03-02T12:22:12;100303.25;;;14.63;57.37
85936;BME280;76481;54.346;10.210;2024-03-02T12:24:38;100303.53;;;14.65;56.57
85936;BME280;76481;54.346;10.210;2024-03-02T12:27:05;100306.16;;;14.84;56.03
85936;BME280;76481;54.346;10.210;2024-03-02T12:29:31;100294.84;;;14.40;56.54
85936;BME280;76481;54.346;10.210;2024-03-02T12:31:56;100311.25;;;14.21;57.18
85936;BME280;76481;54.346;10.210;2024-03-02T12:34:22;100302.94;;;13.89;58.52
85936;BME280;76481;54.346;10.210;2024-03-02T12:36:49;100303.31;;;13.96;57.70
85936;BME280;76481;54.346;10.210;2024-03-02T12:39:18;100303.25;;;14.05;58.59
85936;BME280;76481;54.346;10.210;2024-03-02T12:41:45;100306.31;;;13.78;58.50
85936;BME280;76481;54.346;10.210;2024-03-02T12:44:11;100309.25;;;13.46;59.16
85936;BME280;76481;54.346;10.210;2024-03-02T12:46:36;100306.09;;;13.29;60.20
85936;BME280;76481;54.346;10.210;2024-03-02T12:49:14;100315.50;;;13.12;61.38
85936;BME280;76481;54.346;10.210;2024-03-02T12:51:42;100311.13;;;13.02;62.03
85936;BME280;76481;54.346;10.210;2024-03-02T12:54:08;100299.28;;;13.12;61.44
85936;BME280;76481;54.346;10.210;2024-03-02T12:56:35;100306.25;;;13.02;61.84
85936;BME280;76481;54.346;10.210;2024-03-02T12:59:01;100309.41;;;12.95;62.21